Accueil
METAR-TAF:

METAR-TAF

Aéroports :

Mont-De-Marsan, France

Base aérienne 118 Mont-de-Marsan

latitude: 43-55N, longitude: 000-30W, altitude: 62 m

Observation

Le bulletin a été fait il y a 19 minutes, à 08:30 UTC
Vent 4 kt de ouest, variant entre sud et ouest/nord-ouest
Température 15°C
Humidité 82%
Pression 1025 hPa
Visibilité 10 km ou plus
Ciel couvert à une hauteur de 1900 ft

METAR: LFBM 230830Z AUTO 26004KT 190V300 9999 OVC019 15/12 Q1025

Heure: 10:49 (08:49 UTC)

Prévision

Le bulletin a été fait il y a 49 minutes, à 08:00 UTC
Prévision valable du 23 à 09 UTC au 24 à 09 UTC
Vent 5 kt de ouest/sud-ouest
Visibilité 10 km ou plus
Ciel couvert à une hauteur de 1800 ft
Probabilité 30% :
Temporairement
du 24 à 02 UTC au 24 à 08 UTC
Nuages fragmentés à une hauteur de 500 ft

TAF: LFBM 230800Z 2309/2409 24005KT 9999 OVC018 PROB30 TEMPO 2402/2408 BKN005

Observations et prévisions météorologiques de plus de 4000 aéroports (messages METAR et TAF).

Les stations disponibles sont représentées par des disques jaunes et rouges sur la carte.

Passer la souris dessus pour voir le nom de la station.

Cliquer dessus pour voir les observations et prévisions météorologiques.

Pour changer de carte: cliquez sur les boutons verts avec une croix noire pour zoomer, sur le bouton vert avec un tiret pour effectuer un zoom arrière, ou sur les flèches vertes pour les cartes adjacentes.


METAR-TAF: